CDT,Max TemperatureF,Mean TemperatureF,Min TemperatureF,Max Dew PointF,MeanDew PointF,Min DewpointF,Max Humidity, Mean Humidity, Min Humidity, Max Sea Level PressureIn, Mean Sea Level PressureIn, Min Sea Level PressureIn, Max VisibilityMiles, Mean VisibilityMiles, Min VisibilityMiles, Max Wind SpeedMPH, Mean Wind SpeedMPH, Max Gust SpeedMPH,PrecipitationIn, CloudCover, Events, WindDirDegrees
2012-3-1,64,44,23,37,32,22,100,68,36,29.92,29.72,29.54,10,9,6,20,7,28,0.00,0,,69
2012-3-2,51,43,34,36,32,21,92,64,36,29.96,29.74,29.58,10,7,2,23,14,30,0.11,5,Rain-Snow,338
2012-3-3,46,37,27,23,20,17,78,56,33,30.04,29.98,29.96,10,10,10,29,12,36,0.00,1,,301
2012-3-4,59,40,21,34,26,21,96,67,37,30.24,29.98,29.85,10,10,4,36,12,44,0.00,3,,312
2012-3-5,57,39,21,32,24,20,92,60,28,30.37,30.19,29.93,10,9,5,24,9,29,0.00,0,,179
2012-3-6,73,62,50,48,42,35,60,46,31,29.91,29.79,29.70,10,10,8,33,22,46,0.00,1,,195
2012-3-7,69,55,40,53,44,30,76,67,57,30.07,29.81,29.70,10,10,7,33,20,41,T,7,,253
2012-3-8,52,41,29,30,24,15,82,53,24,30.49,30.33,30.07,10,10,8,24,9,28,0.05,2,Thunderstorm,337
2012-3-9,60,41,22,30,25,20,81,54,27,30.60,30.49,30.40,10,10,10,15,6,18,0.00,0,,162
2012-3-10,67,51,34,35,30,28,82,53,24,30.39,30.26,30.15,10,10,10,23,9,32,0.00,0,,188
2012-3-11,50,45,39,50,45,32,100,78,56,30.13,29.95,29.80,10,6,2,16,8,21,0.43,8,Rain,158
2012-3-12,70,57,43,52,48,44,100,74,47,29.97,29.80,29.75,10,9,4,17,7,21,0.21,5,Rain,212
2012-3-13,82,58,34,57,44,36,100,63,26,30.04,29.99,29.86,10,8,2,22,8,26,0.00,0,,170
2012-3-14,83,72,61,63,59,57,90,68,46,29.95,29.86,29.81,10,10,7,25,15,30,0.00,2,,202
2012-3-15,78,69,59,64,61,59,97,79,60,30.03,29.97,29.92,10,9,5,20,8,24,0.00,4,,195
2012-3-16,82,70,58,64,61,57,97,72,47,29.96,29.91,29.83,10,9,6,24,12,30,0.00,2,,190
2012-3-17,80,73,65,63,61,60,87,73,58,29.89,29.84,29.79,10,10,9,31,17,38,0.00,3,,183
2012-3-18,79,73,67,61,60,58,78,67,56,29.83,29.81,29.76,10,10,10,28,18,35,0.00,5,,181
2012-3-19,72,65,58,60,58,55,93,77,61,29.76,29.71,29.68,10,6,0,26,14,35,1.09,8,Fog-Rain-Thunderstorm,190
2012-3-20,60,58,56,57,55,53,93,93,93,29.89,29.80,29.70,10,6,1,22,7,28,0.49,8,Rain,73
2012-3-21,64,59,54,61,58,52,100,92,84,29.91,29.86,29.78,10,8,2,26,10,38,0.32,8,Rain,105
2012-3-22,69,59,48,52,50,46,100,75,49,29.99,29.92,29.85,10,8,2,29,8,36,0.46,5,Rain-Thunderstorm,138
2012-3-23,67,59,51,52,49,48,96,77,58,29.94,29.90,29.87,10,10,9,15,6,21,0.02,5,Rain,22
2012-3-24,76,62,48,52,47,43,83,60,36,30.02,29.97,29.92,10,10,10,18,6,24,0.00,0,,313
2012-3-25,81,61,41,55,48,42,100,64,28,30.12,30.04,29.99,10,9,3,10,3,13,0.00,0,,158
2012-3-26,81,67,52,56,53,50,93,65,36,30.06,29.97,29.85,10,10,10,23,10,29,0.00,1,,169
2012-3-27,78,64,50,59,57,52,93,72,50,29.93,29.88,29.83,10,10,7,24,13,31,0.01,2,Thunderstorm,201
2012-3-28,80,61,41,50,46,40,100,67,33,30.04,29.95,29.88,10,10,9,20,6,24,0.01,2,Rain-Thunderstorm,102
2012-3-29,77,67,56,65,57,50,90,73,56,29.92,29.82,29.63,10,8,1,26,15,36,1.13,6,Rain-Thunderstorm,120
2012-3-30,76,67,57,61,57,53,100,73,46,29.84,29.77,29.67,10,6,2,20,5,26,0.00,4,,322
2012-3-31,84,72,59,60,57,54,87,64,40,29.82,29.75,29.67,10,10,10,20,9,24,0.00,0,,190